Terminal Aerodrome Forecast
Issued by NWS Omaha/Valley, NE

Home | Current Version | Previous Version | Text Only | Print | Product List | Glossary Off
Versions: 1 2 3 4 5 6 7 8 9 10 11 12 13 14 15 16 17 18 19 20 21 22 23

000
FTUS43 KOAX 221720
TAFOFK
TAF
KOFK 221720Z 2218/2318 17016G22KT P6SM SCT050
      TEMPO 2220/2224 5SM -SHRA BKN025
     FM230000 18010KT P6SM BKN100
     FM230200 24010KT P6SM BKN250=

USA.gov is the U.S. government's official web portal to all federal, state and local government web resources and services.